sensor_id;sensor_type;location;lat;lon;timestamp;P1;durP1;ratioP1;P2;durP2;ratioP2
12222;SDS011;6174;49.058;8.524;2023-12-20T06:00:42;3.67;;;3.37;;
12222;SDS011;6174;49.058;8.524;2023-12-20T06:03:12;3.70;;;3.40;;
12222;SDS011;6174;49.058;8.524;2023-12-20T06:05:38;3.30;;;3.10;;
12222;SDS011;6174;49.058;8.524;2023-12-20T06:08:06;3.30;;;3.10;;
12222;SDS011;6174;49.058;8.524;2023-12-20T06:10:32;3.40;;;3.10;;
12222;SDS011;6174;49.058;8.524;2023-12-20T06:12:59;3.43;;;3.10;;
12222;SDS011;6174;49.058;8.524;2023-12-20T06:15:26;3.33;;;3.13;;
12222;SDS011;6174;49.058;8.524;2023-12-20T06:17:54;3.50;;;3.20;;
12222;SDS011;6174;49.058;8.524;2023-12-20T06:20:21;3.53;;;3.23;;
12222;SDS011;6174;49.058;8.524;2023-12-20T06:22:48;3.43;;;3.13;;
12222;SDS011;6174;49.058;8.524;2023-12-20T06:25:18;3.00;;;2.73;;
12222;SDS011;6174;49.058;8.524;2023-12-20T06:27:47;3.17;;;2.97;;
12222;SDS011;6174;49.058;8.524;2023-12-20T06:30:15;2.90;;;2.70;;
12222;SDS011;6174;49.058;8.524;2023-12-20T06:32:42;3.03;;;2.73;;
12222;SDS011;6174;49.058;8.524;2023-12-20T06:35:10;3.03;;;2.83;;
12222;SDS011;6174;49.058;8.524;2023-12-20T06:37:37;3.83;;;3.47;;
12222;SDS011;6174;49.058;8.524;2023-12-20T06:40:07;3.33;;;3.10;;
12222;SDS011;6174;49.058;8.524;2023-12-20T06:42:35;3.63;;;3.33;;
12222;SDS011;6174;49.058;8.524;2023-12-20T06:45:02;3.00;;;2.80;;
12222;SDS011;6174;49.058;8.524;2023-12-20T06:47:30;3.20;;;2.90;;
12222;SDS011;6174;49.058;8.524;2023-12-20T06:49:57;3.10;;;2.90;;
12222;SDS011;6174;49.058;8.524;2023-12-20T06:52:25;3.47;;;3.17;;
12222;SDS011;6174;49.058;8.524;2023-12-20T06:54:52;2.97;;;2.77;;
12222;SDS011;6174;49.058;8.524;2023-12-20T06:57:20;3.37;;;3.13;;
12222;SDS011;6174;49.058;8.524;2023-12-20T06:59:51;2.93;;;2.73;;
12222;SDS011;6174;49.058;8.524;2023-12-20T07:02:18;2.83;;;2.63;;
12222;SDS011;6174;49.058;8.524;2023-12-20T07:04:46;2.90;;;2.70;;
12222;SDS011;6174;49.058;8.524;2023-12-20T07:07:12;3.37;;;3.07;;
12222;SDS011;6174;49.058;8.524;2023-12-20T07:09:44;3.07;;;2.87;;
12222;SDS011;6174;49.058;8.524;2023-12-20T07:12:15;3.57;;;3.27;;
12222;SDS011;6174;49.058;8.524;2023-12-20T07:14:44;3.47;;;3.17;;
12222;SDS011;6174;49.058;8.524;2023-12-20T07:17:11;3.10;;;2.90;;
12222;SDS011;6174;49.058;8.524;2023-12-20T07:19:40;3.63;;;3.00;;
12222;SDS011;6174;49.058;8.524;2023-12-20T07:22:09;3.13;;;2.93;;
12222;SDS011;6174;49.058;8.524;2023-12-20T07:24:35;3.10;;;2.90;;
12222;SDS011;6174;49.058;8.524;2023-12-20T07:27:04;2.87;;;2.67;;
12222;SDS011;6174;49.058;8.524;2023-12-20T07:29:31;3.30;;;3.00;;
12222;SDS011;6174;49.058;8.524;2023-12-20T07:31:58;2.77;;;2.50;;
12222;SDS011;6174;49.058;8.524;2023-12-20T07:34:25;3.20;;;2.73;;
12222;SDS011;6174;49.058;8.524;2023-12-20T07:36:52;2.97;;;2.77;;
12222;SDS011;6174;49.058;8.524;2023-12-20T07:39:19;3.13;;;2.83;;
12222;SDS011;6174;49.058;8.524;2023-12-20T07:41:46;2.57;;;2.37;;
12222;SDS011;6174;49.058;8.524;2023-12-20T07:44:14;2.97;;;2.77;;
12222;SDS011;6174;49.058;8.524;2023-12-20T07:46:41;3.10;;;2.80;;
12222;SDS011;6174;49.058;8.524;2023-12-20T07:49:08;2.97;;;2.77;;
12222;SDS011;6174;49.058;8.524;2023-12-20T07:51:36;3.10;;;2.80;;
12222;SDS011;6174;49.058;8.524;2023-12-20T07:54:03;3.47;;;3.00;;
12222;SDS011;6174;49.058;8.524;2023-12-20T07:56:30;3.17;;;2.87;;
12222;SDS011;6174;49.058;8.524;2023-12-20T07:58:57;3.50;;;3.00;;
12222;SDS011;6174;49.058;8.524;2023-12-20T08:58:44;3.63;;;2.10;;
12222;SDS011;6174;49.058;8.524;2023-12-20T09:01:11;2.80;;;1.73;;
12222;SDS011;6174;49.058;8.524;2023-12-20T09:06:19;2.80;;;1.70;;
12222;SDS011;6174;49.058;8.524;2023-12-20T09:08:46;3.43;;;1.93;;
12222;SDS011;6174;49.058;8.524;2023-12-20T09:11:13;4.47;;;1.80;;
12222;SDS011;6174;49.058;8.524;2023-12-20T09:13:41;2.83;;;1.50;;
12222;SDS011;6174;49.058;8.524;2023-12-20T09:16:09;2.40;;;1.50;;
12222;SDS011;6174;49.058;8.524;2023-12-20T09:18:36;4.87;;;1.80;;
12222;SDS011;6174;49.058;8.524;2023-12-20T09:21:03;2.80;;;1.63;;
12222;SDS011;6174;49.058;8.524;2023-12-20T09:23:30;3.13;;;1.60;;
12222;SDS011;6174;49.058;8.524;2023-12-20T09:25:57;2.30;;;1.50;;
12222;SDS011;6174;49.058;8.524;2023-12-20T09:28:24;2.97;;;1.50;;
12222;SDS011;6174;49.058;8.524;2023-12-20T09:30:52;2.40;;;1.70;;
12222;SDS011;6174;49.058;8.524;2023-12-20T09:33:19;2.90;;;1.90;;
12222;SDS011;6174;49.058;8.524;2023-12-20T09:35:46;3.63;;;1.90;;
12222;SDS011;6174;49.058;8.524;2023-12-20T09:38:13;2.90;;;1.60;;
12222;SDS011;6174;49.058;8.524;2023-12-20T09:40:42;1.63;;;1.53;;
12222;SDS011;6174;49.058;8.524;2023-12-20T09:43:10;2.33;;;1.43;;
12222;SDS011;6174;49.058;8.524;2023-12-20T09:45:39;3.00;;;1.70;;
12222;SDS011;6174;49.058;8.524;2023-12-20T09:48:09;2.77;;;1.87;;
12222;SDS011;6174;49.058;8.524;2023-12-20T09:50:37;2.23;;;1.70;;
12222;SDS011;6174;49.058;8.524;2023-12-20T09:53:04;3.00;;;1.80;;
12222;SDS011;6174;49.058;8.524;2023-12-20T09:55:34;2.90;;;1.80;;
12222;SDS011;6174;49.058;8.524;2023-12-20T09:58:05;3.80;;;1.80;;
12222;SDS011;6174;49.058;8.524;2023-12-20T10:00:33;4.93;;;2.00;;
12222;SDS011;6174;49.058;8.524;2023-12-20T10:03:00;4.10;;;2.00;;
12222;SDS011;6174;49.058;8.524;2023-12-20T10:05:29;3.33;;;2.00;;
12222;SDS011;6174;49.058;8.524;2023-12-20T10:07:57;4.63;;;2.00;;
12222;SDS011;6174;49.058;8.524;2023-12-20T10:10:25;2.70;;;1.90;;
12222;SDS011;6174;49.058;8.524;2023-12-20T10:13:02;4.63;;;2.43;;
12222;SDS011;6174;49.058;8.524;2023-12-20T10:15:30;3.57;;;2.10;;
12222;SDS011;6174;49.058;8.524;2023-12-20T10:17:58;3.57;;;2.03;;
12222;SDS011;6174;49.058;8.524;2023-12-20T10:20:25;2.63;;;1.80;;
12222;SDS011;6174;49.058;8.524;2023-12-20T10:22:55;3.23;;;2.10;;
12222;SDS011;6174;49.058;8.524;2023-12-20T10:25:22;3.13;;;1.97;;
12222;SDS011;6174;49.058;8.524;2023-12-20T10:27:49;4.80;;;1.90;;
12222;SDS011;6174;49.058;8.524;2023-12-20T10:30:17;2.87;;;1.83;;
12222;SDS011;6174;49.058;8.524;2023-12-20T10:32:43;3.30;;;1.90;;
12222;SDS011;6174;49.058;8.524;2023-12-20T10:35:10;3.23;;;1.77;;
12222;SDS011;6174;49.058;8.524;2023-12-20T10:37:37;3.37;;;1.90;;
12222;SDS011;6174;49.058;8.524;2023-12-20T10:40:07;3.77;;;1.97;;
12222;SDS011;6174;49.058;8.524;2023-12-20T10:42:35;3.50;;;1.90;;
12222;SDS011;6174;49.058;8.524;2023-12-20T10:45:02;4.00;;;2.07;;
12222;SDS011;6174;49.058;8.524;2023-12-20T10:47:30;2.70;;;1.67;;
12222;SDS011;6174;49.058;8.524;2023-12-20T10:49:59;4.17;;;2.00;;
12222;SDS011;6174;49.058;8.524;2023-12-20T10:52:26;4.27;;;2.17;;
12222;SDS011;6174;49.058;8.524;2023-12-20T10:54:55;4.10;;;2.53;;
12222;SDS011;6174;49.058;8.524;2023-12-20T10:57:23;4.33;;;2.30;;
12222;SDS011;6174;49.058;8.524;2023-12-20T10:59:57;5.73;;;2.20;;
12222;SDS011;6174;49.058;8.524;2023-12-20T11:02:27;4.50;;;2.30;;
12222;SDS011;6174;49.058;8.524;2023-12-20T11:04:59;3.40;;;2.37;;
12222;SDS011;6174;49.058;8.524;2023-12-20T11:07:38;3.37;;;2.20;;
12222;SDS011;6174;49.058;8.524;2023-12-20T11:10:10;4.30;;;2.40;;
12222;SDS011;6174;49.058;8.524;2023-12-20T11:12:44;5.10;;;2.80;;
12222;SDS011;6174;49.058;8.524;2023-12-20T11:15:15;6.10;;;2.83;;
12222;SDS011;6174;49.058;8.524;2023-12-20T11:17:44;5.00;;;2.77;;
12222;SDS011;6174;49.058;8.524;2023-12-20T11:20:12;5.70;;;2.50;;
12222;SDS011;6174;49.058;8.524;2023-12-20T11:22:39;4.33;;;2.30;;
12222;SDS011;6174;49.058;8.524;2023-12-20T11:25:17;5.17;;;2.60;;
12222;SDS011;6174;49.058;8.524;2023-12-20T11:27:47;4.83;;;2.70;;
12222;SDS011;6174;49.058;8.524;2023-12-20T11:30:45;4.60;;;3.10;;
12222;SDS011;6174;49.058;8.524;2023-12-20T11:33:13;3.50;;;2.40;;
12222;SDS011;6174;49.058;8.524;2023-12-20T11:35:41;4.13;;;2.53;;
12222;SDS011;6174;49.058;8.524;2023-12-20T11:38:08;5.23;;;2.10;;
12222;SDS011;6174;49.058;8.524;2023-12-20T11:40:35;5.30;;;2.63;;
12222;SDS011;6174;49.058;8.524;2023-12-20T11:43:04;6.47;;;2.50;;
12222;SDS011;6174;49.058;8.524;2023-12-20T11:45:31;4.23;;;2.30;;
12222;SDS011;6174;49.058;8.524;2023-12-20T11:47:59;3.43;;;2.20;;
12222;SDS011;6174;49.058;8.524;2023-12-20T11:50:28;5.80;;;2.30;;
12222;SDS011;6174;49.058;8.524;2023-12-20T11:53:00;5.00;;;2.37;;
12222;SDS011;6174;49.058;8.524;2023-12-20T11:55:27;5.83;;;2.40;;
12222;SDS011;6174;49.058;8.524;2023-12-20T11:57:53;5.27;;;3.10;;
12222;SDS011;6174;49.058;8.524;2023-12-20T12:00:22;4.37;;;2.27;;
12222;SDS011;6174;49.058;8.524;2023-12-20T12:02:55;4.33;;;2.30;;
12222;SDS011;6174;49.058;8.524;2023-12-20T12:05:22;5.17;;;2.43;;
12222;SDS011;6174;49.058;8.524;2023-12-20T12:07:50;4.40;;;2.40;;
12222;SDS011;6174;49.058;8.524;2023-12-20T12:10:18;5.53;;;2.87;;
12222;SDS011;6174;49.058;8.524;2023-12-20T12:12:45;5.80;;;2.40;;
12222;SDS011;6174;49.058;8.524;2023-12-20T12:15:13;3.73;;;2.27;;
12222;SDS011;6174;49.058;8.524;2023-12-20T12:17:42;4.63;;;2.80;;
12222;SDS011;6174;49.058;8.524;2023-12-20T12:20:09;5.87;;;2.63;;
12222;SDS011;6174;49.058;8.524;2023-12-20T12:22:37;4.83;;;3.10;;
12222;SDS011;6174;49.058;8.524;2023-12-20T12:25:10;5.43;;;2.60;;
12222;SDS011;6174;49.058;8.524;2023-12-20T12:27:39;5.67;;;2.60;;
12222;SDS011;6174;49.058;8.524;2023-12-20T12:30:07;3.77;;;2.57;;
12222;SDS011;6174;49.058;8.524;2023-12-20T12:32:40;8.17;;;3.17;;
12222;SDS011;6174;49.058;8.524;2023-12-20T12:35:08;3.50;;;2.13;;
12222;SDS011;6174;49.058;8.524;2023-12-20T12:37:37;3.67;;;2.33;;
12222;SDS011;6174;49.058;8.524;2023-12-20T12:40:05;3.93;;;2.10;;
12222;SDS011;6174;49.058;8.524;2023-12-20T12:42:33;4.23;;;2.60;;
12222;SDS011;6174;49.058;8.524;2023-12-20T12:45:00;4.67;;;2.50;;
12222;SDS011;6174;49.058;8.524;2023-12-20T12:47:26;5.33;;;2.27;;
12222;SDS011;6174;49.058;8.524;2023-12-20T12:49:53;4.73;;;2.30;;
12222;SDS011;6174;49.058;8.524;2023-12-20T12:52:22;4.57;;;2.13;;
12222;SDS011;6174;49.058;8.524;2023-12-20T12:54:49;5.13;;;1.93;;
12222;SDS011;6174;49.058;8.524;2023-12-20T12:57:15;6.60;;;2.23;;
12222;SDS011;6174;49.058;8.524;2023-12-20T12:59:42;4.27;;;2.30;;
12222;SDS011;6174;49.058;8.524;2023-12-20T13:02:10;3.50;;;2.40;;
12222;SDS011;6174;49.058;8.524;2023-12-20T13:04:38;4.03;;;1.87;;
12222;SDS011;6174;49.058;8.524;2023-12-20T13:07:05;5.27;;;2.47;;
12222;SDS011;6174;49.058;8.524;2023-12-20T13:09:33;6.33;;;2.70;;
12222;SDS011;6174;49.058;8.524;2023-12-20T13:12:00;4.60;;;2.20;;
12222;SDS011;6174;49.058;8.524;2023-12-20T13:14:29;4.23;;;2.30;;
12222;SDS011;6174;49.058;8.524;2023-12-20T13:16:59;4.27;;;2.00;;
12222;SDS011;6174;49.058;8.524;2023-12-20T13:19:26;5.37;;;2.00;;
12222;SDS011;6174;49.058;8.524;2023-12-20T13:21:53;4.73;;;2.30;;
12222;SDS011;6174;49.058;8.524;2023-12-20T13:24:20;5.00;;;2.00;;
12222;SDS011;6174;49.058;8.524;2023-12-20T13:26:48;2.83;;;1.70;;
12222;SDS011;6174;49.058;8.524;2023-12-20T13:29:14;3.60;;;2.43;;
12222;SDS011;6174;49.058;8.524;2023-12-20T13:31:41;4.07;;;2.20;;
12222;SDS011;6174;49.058;8.524;2023-12-20T13:34:08;3.50;;;1.90;;
12222;SDS011;6174;49.058;8.524;2023-12-20T13:36:35;4.43;;;2.10;;
12222;SDS011;6174;49.058;8.524;2023-12-20T13:39:05;5.00;;;2.03;;
12222;SDS011;6174;49.058;8.524;2023-12-20T13:41:32;4.70;;;2.27;;
12222;SDS011;6174;49.058;8.524;2023-12-20T13:44:03;6.67;;;2.17;;
12222;SDS011;6174;49.058;8.524;2023-12-20T13:46:30;3.13;;;2.13;;
12222;SDS011;6174;49.058;8.524;2023-12-20T13:48:57;2.53;;;1.73;;
12222;SDS011;6174;49.058;8.524;2023-12-20T13:51:24;7.03;;;2.40;;
12222;SDS011;6174;49.058;8.524;2023-12-20T13:53:51;5.00;;;2.23;;
12222;SDS011;6174;49.058;8.524;2023-12-20T13:56:18;4.57;;;2.30;;
12222;SDS011;6174;49.058;8.524;2023-12-20T13:58:45;3.63;;;2.30;;
12222;SDS011;6174;49.058;8.524;2023-12-20T14:01:13;6.60;;;2.20;;
12222;SDS011;6174;49.058;8.524;2023-12-20T14:03:40;4.27;;;2.23;;
12222;SDS011;6174;49.058;8.524;2023-12-20T14:12:25;4.20;;;2.07;;
12222;SDS011;6174;49.058;8.524;2023-12-20T14:14:51;5.63;;;2.17;;
12222;SDS011;6174;49.058;8.524;2023-12-20T14:17:20;5.77;;;2.10;;
12222;SDS011;6174;49.058;8.524;2023-12-20T14:19:49;4.23;;;2.30;;
12222;SDS011;6174;49.058;8.524;2023-12-20T14:22:16;4.80;;;2.20;;
12222;SDS011;6174;49.058;8.524;2023-12-20T14:24:43;6.67;;;2.77;;
12222;SDS011;6174;49.058;8.524;2023-12-20T14:27:11;5.97;;;2.53;;
12222;SDS011;6174;49.058;8.524;2023-12-20T14:29:39;4.93;;;2.20;;
12222;SDS011;6174;49.058;8.524;2023-12-20T14:32:06;3.27;;;1.80;;
12222;SDS011;6174;49.058;8.524;2023-12-20T14:34:33;3.67;;;2.30;;
12222;SDS011;6174;49.058;8.524;2023-12-20T14:36:59;8.47;;;2.50;;
12222;SDS011;6174;49.058;8.524;2023-12-20T14:39:26;5.73;;;2.30;;
12222;SDS011;6174;49.058;8.524;2023-12-20T14:41:53;3.27;;;2.00;;
12222;SDS011;6174;49.058;8.524;2023-12-20T14:44:20;6.00;;;2.13;;
12222;SDS011;6174;49.058;8.524;2023-12-20T14:46:48;5.33;;;2.30;;
12222;SDS011;6174;49.058;8.524;2023-12-20T14:49:16;5.30;;;2.33;;
12222;SDS011;6174;49.058;8.524;2023-12-20T14:51:43;5.13;;;2.30;;
12222;SDS011;6174;49.058;8.524;2023-12-20T14:54:12;6.03;;;2.40;;
12222;SDS011;6174;49.058;8.524;2023-12-20T14:56:39;4.87;;;2.43;;
12222;SDS011;6174;49.058;8.524;2023-12-20T14:59:06;4.97;;;2.63;;
12222;SDS011;6174;49.058;8.524;2023-12-20T15:01:33;5.10;;;2.73;;
12222;SDS011;6174;49.058;8.524;2023-12-20T15:04:02;4.60;;;2.23;;
12222;SDS011;6174;49.058;8.524;2023-12-20T15:06:30;6.87;;;2.50;;
12222;SDS011;6174;49.058;8.524;2023-12-20T15:08:58;7.30;;;2.17;;
12222;SDS011;6174;49.058;8.524;2023-12-20T15:11:24;5.47;;;2.30;;
12222;SDS011;6174;49.058;8.524;2023-12-20T15:13:52;6.73;;;2.30;;
12222;SDS011;6174;49.058;8.524;2023-12-20T15:16:21;7.63;;;2.60;;
12222;SDS011;6174;49.058;8.524;2023-12-20T15:18:47;4.20;;;2.37;;
12222;SDS011;6174;49.058;8.524;2023-12-20T15:21:16;5.00;;;2.40;;
12222;SDS011;6174;49.058;8.524;2023-12-20T15:23:43;5.87;;;2.30;;
12222;SDS011;6174;49.058;8.524;2023-12-20T15:26:17;4.87;;;2.47;;
12222;SDS011;6174;49.058;8.524;2023-12-20T15:28:44;4.27;;;2.63;;
12222;SDS011;6174;49.058;8.524;2023-12-20T15:31:11;6.40;;;2.60;;
12222;SDS011;6174;49.058;8.524;2023-12-20T15:33:41;3.33;;;2.20;;
12222;SDS011;6174;49.058;8.524;2023-12-20T15:36:07;3.80;;;2.23;;
12222;SDS011;6174;49.058;8.524;2023-12-20T15:38:35;6.80;;;2.50;;
12222;SDS011;6174;49.058;8.524;2023-12-20T15:41:03;5.23;;;2.50;;
12222;SDS011;6174;49.058;8.524;2023-12-20T15:43:30;6.13;;;2.50;;
12222;SDS011;6174;49.058;8.524;2023-12-20T15:45:56;5.70;;;2.40;;
12222;SDS011;6174;49.058;8.524;2023-12-20T15:48:23;4.73;;;2.30;;
12222;SDS011;6174;49.058;8.524;2023-12-20T15:50:53;6.10;;;2.67;;
12222;SDS011;6174;49.058;8.524;2023-12-20T15:53:21;6.83;;;2.57;;
12222;SDS011;6174;49.058;8.524;2023-12-20T15:55:49;7.30;;;3.00;;
12222;SDS011;6174;49.058;8.524;2023-12-20T15:58:16;5.07;;;2.10;;
12222;SDS011;6174;49.058;8.524;2023-12-20T16:00:43;5.80;;;2.43;;
12222;SDS011;6174;49.058;8.524;2023-12-20T16:03:11;4.57;;;2.00;;
12222;SDS011;6174;49.058;8.524;2023-12-20T16:05:39;5.73;;;1.93;;
12222;SDS011;6174;49.058;8.524;2023-12-20T16:08:08;4.20;;;2.03;;
12222;SDS011;6174;49.058;8.524;2023-12-20T16:10:35;8.27;;;2.60;;
12222;SDS011;6174;49.058;8.524;2023-12-20T16:13:03;4.73;;;2.23;;
12222;SDS011;6174;49.058;8.524;2023-12-20T16:15:29;5.77;;;2.13;;
12222;SDS011;6174;49.058;8.524;2023-12-20T16:17:56;4.53;;;2.93;;
12222;SDS011;6174;49.058;8.524;2023-12-20T16:20:24;7.37;;;2.67;;
12222;SDS011;6174;49.058;8.524;2023-12-20T16:22:50;4.10;;;2.40;;
12222;SDS011;6174;49.058;8.524;2023-12-20T16:25:17;4.70;;;2.43;;
12222;SDS011;6174;49.058;8.524;2023-12-20T16:27:44;3.90;;;2.13;;
12222;SDS011;6174;49.058;8.524;2023-12-20T16:30:14;5.63;;;2.50;;
12222;SDS011;6174;49.058;8.524;2023-12-20T16:32:41;4.03;;;2.40;;
12222;SDS011;6174;49.058;8.524;2023-12-20T16:35:08;4.97;;;3.00;;
12222;SDS011;6174;49.058;8.524;2023-12-20T16:37:35;5.77;;;2.47;;
12222;SDS011;6174;49.058;8.524;2023-12-20T16:40:03;5.50;;;2.87;;
12222;SDS011;6174;49.058;8.524;2023-12-20T16:42:30;4.37;;;2.47;;
12222;SDS011;6174;49.058;8.524;2023-12-20T16:44:59;4.27;;;2.23;;
12222;SDS011;6174;49.058;8.524;2023-12-20T16:47:27;7.17;;;2.20;;
12222;SDS011;6174;49.058;8.524;2023-12-20T16:49:54;3.73;;;2.13;;
12222;SDS011;6174;49.058;8.524;2023-12-20T16:52:21;3.87;;;2.33;;
12222;SDS011;6174;49.058;8.524;2023-12-20T16:54:48;5.47;;;3.90;;
12222;SDS011;6174;49.058;8.524;2023-12-20T16:57:17;5.00;;;2.30;;
12222;SDS011;6174;49.058;8.524;2023-12-20T16:59:46;4.83;;;2.20;;
12222;SDS011;6174;49.058;8.524;2023-12-20T17:02:13;4.13;;;2.33;;
12222;SDS011;6174;49.058;8.524;2023-12-20T17:04:41;3.97;;;2.00;;
12222;SDS011;6174;49.058;8.524;2023-12-20T17:07:07;3.80;;;2.23;;
12222;SDS011;6174;49.058;8.524;2023-12-20T17:09:34;5.53;;;2.10;;
12222;SDS011;6174;49.058;8.524;2023-12-20T17:12:03;4.53;;;1.93;;
12222;SDS011;6174;49.058;8.524;2023-12-20T17:14:32;4.27;;;2.27;;
12222;SDS011;6174;49.058;8.524;2023-12-20T17:16:59;5.13;;;2.53;;
12222;SDS011;6174;49.058;8.524;2023-12-20T17:19:26;5.87;;;2.10;;
12222;SDS011;6174;49.058;8.524;2023-12-20T17:21:56;2.90;;;1.73;;
12222;SDS011;6174;49.058;8.524;2023-12-20T17:24:23;3.73;;;2.10;;
12222;SDS011;6174;49.058;8.524;2023-12-20T17:26:49;3.53;;;2.67;;
12222;SDS011;6174;49.058;8.524;2023-12-20T17:29:16;3.73;;;1.93;;
12222;SDS011;6174;49.058;8.524;2023-12-20T17:31:43;6.23;;;2.73;;
12222;SDS011;6174;49.058;8.524;2023-12-20T17:34:10;5.33;;;2.57;;
12222;SDS011;6174;49.058;8.524;2023-12-20T17:36:37;5.83;;;2.50;;
12222;SDS011;6174;49.058;8.524;2023-12-20T17:39:12;4.57;;;2.20;;
12222;SDS011;6174;49.058;8.524;2023-12-20T17:41:41;2.67;;;1.73;;
12222;SDS011;6174;49.058;8.524;2023-12-20T17:44:08;5.77;;;2.50;;
12222;SDS011;6174;49.058;8.524;2023-12-20T17:46:37;2.63;;;1.80;;
12222;SDS011;6174;49.058;8.524;2023-12-20T17:49:04;4.63;;;1.87;;
12222;SDS011;6174;49.058;8.524;2023-12-20T17:51:31;3.27;;;1.80;;
12222;SDS011;6174;49.058;8.524;2023-12-20T17:53:58;4.50;;;1.97;;
12222;SDS011;6174;49.058;8.524;2023-12-20T17:56:28;4.80;;;1.80;;
12222;SDS011;6174;49.058;8.524;2023-12-20T17:58:55;3.30;;;1.87;;
12222;SDS011;6174;49.058;8.524;2023-12-20T18:01:22;3.53;;;1.97;;
12222;SDS011;6174;49.058;8.524;2023-12-20T18:03:48;3.50;;;2.00;;
12222;SDS011;6174;49.058;8.524;2023-12-20T18:06:15;4.63;;;1.90;;
12222;SDS011;6174;49.058;8.524;2023-12-20T18:08:42;3.10;;;1.87;;
12222;SDS011;6174;49.058;8.524;2023-12-20T18:11:09;2.50;;;1.77;;
12222;SDS011;6174;49.058;8.524;2023-12-20T18:13:37;3.67;;;1.90;;
12222;SDS011;6174;49.058;8.524;2023-12-20T18:31:31;4.30;;;1.83;;
12222;SDS011;6174;49.058;8.524;2023-12-20T18:34:04;3.27;;;1.67;;
12222;SDS011;6174;49.058;8.524;2023-12-20T18:36:49;2.83;;;1.67;;
12222;SDS011;6174;49.058;8.524;2023-12-20T18:39:17;4.77;;;1.60;;
12222;SDS011;6174;49.058;8.524;2023-12-20T18:41:47;2.23;;;1.40;;
12222;SDS011;6174;49.058;8.524;2023-12-20T18:44:24;2.40;;;1.37;;
12222;SDS011;6174;49.058;8.524;2023-12-20T18:46:59;2.70;;;1.47;;
12222;SDS011;6174;49.058;8.524;2023-12-20T18:49:32;2.33;;;1.60;;
12222;SDS011;6174;49.058;8.524;2023-12-20T18:52:05;2.80;;;1.33;;
12222;SDS011;6174;49.058;8.524;2023-12-20T19:08:06;3.20;;;1.47;;
12222;SDS011;6174;49.058;8.524;2023-12-20T19:13:22;2.67;;;1.30;;
12222;SDS011;6174;49.058;8.524;2023-12-20T19:15:55;2.87;;;1.70;;
12222;SDS011;6174;49.058;8.524;2023-12-20T19:18:22;5.03;;;1.50;;
12222;SDS011;6174;49.058;8.524;2023-12-20T19:20:54;4.97;;;2.37;;
12222;SDS011;6174;49.058;8.524;2023-12-20T19:23:22;2.30;;;2.10;;
12222;SDS011;6174;49.058;8.524;2023-12-20T19:25:53;3.33;;;2.30;;
12222;SDS011;6174;49.058;8.524;2023-12-20T19:28:20;4.77;;;2.17;;
12222;SDS011;6174;49.058;8.524;2023-12-20T19:30:50;3.80;;;2.10;;
12222;SDS011;6174;49.058;8.524;2023-12-20T19:33:22;4.90;;;2.20;;
12222;SDS011;6174;49.058;8.524;2023-12-20T19:35:49;3.80;;;2.00;;
12222;SDS011;6174;49.058;8.524;2023-12-20T19:38:18;2.67;;;2.10;;
12222;SDS011;6174;49.058;8.524;2023-12-20T19:40:45;4.00;;;1.90;;
12222;SDS011;6174;49.058;8.524;2023-12-20T19:43:15;2.60;;;1.57;;
12222;SDS011;6174;49.058;8.524;2023-12-20T19:45:45;3.00;;;2.60;;
12222;SDS011;6174;49.058;8.524;2023-12-20T19:48:21;2.40;;;1.73;;
12222;SDS011;6174;49.058;8.524;2023-12-20T19:50:48;5.73;;;3.13;;
12222;SDS011;6174;49.058;8.524;2023-12-20T19:56:05;4.53;;;2.70;;
12222;SDS011;6174;49.058;8.524;2023-12-20T19:58:36;5.03;;;2.80;;
12222;SDS011;6174;49.058;8.524;2023-12-20T20:01:06;5.30;;;2.13;;
12222;SDS011;6174;49.058;8.524;2023-12-20T20:03:33;6.90;;;2.93;;
12222;SDS011;6174;49.058;8.524;2023-12-20T20:06:00;5.73;;;2.33;;
12222;SDS011;6174;49.058;8.524;2023-12-20T20:08:27;3.20;;;1.90;;
12222;SDS011;6174;49.058;8.524;2023-12-20T20:10:55;3.83;;;1.50;;
12222;SDS011;6174;49.058;8.524;2023-12-20T20:13:22;2.97;;;1.90;;
12222;SDS011;6174;49.058;8.524;2023-12-20T20:15:48;3.00;;;1.80;;
12222;SDS011;6174;49.058;8.524;2023-12-20T20:20:48;2.33;;;1.50;;
12222;SDS011;6174;49.058;8.524;2023-12-20T20:23:15;3.23;;;1.80;;
12222;SDS011;6174;49.058;8.524;2023-12-20T20:25:42;3.63;;;1.83;;
12222;SDS011;6174;49.058;8.524;2023-12-20T20:28:10;1.90;;;1.33;;
12222;SDS011;6174;49.058;8.524;2023-12-20T20:30:37;2.17;;;1.60;;
12222;SDS011;6174;49.058;8.524;2023-12-20T20:33:04;1.93;;;1.50;;
12222;SDS011;6174;49.058;8.524;2023-12-20T20:35:31;2.07;;;1.53;;
12222;SDS011;6174;49.058;8.524;2023-12-20T20:37:58;2.17;;;1.50;;
12222;SDS011;6174;49.058;8.524;2023-12-20T20:40:24;1.83;;;1.43;;
12222;SDS011;6174;49.058;8.524;2023-12-20T20:42:51;2.53;;;1.20;;
12222;SDS011;6174;49.058;8.524;2023-12-20T20:45:20;3.13;;;1.90;;
12222;SDS011;6174;49.058;8.524;2023-12-20T20:47:48;3.50;;;2.07;;
12222;SDS011;6174;49.058;8.524;2023-12-20T20:50:14;2.70;;;1.70;;
12222;SDS011;6174;49.058;8.524;2023-12-20T20:52:44;1.53;;;1.40;;
12222;SDS011;6174;49.058;8.524;2023-12-20T20:55:13;2.63;;;1.60;;
12222;SDS011;6174;49.058;8.524;2023-12-20T20:57:40;2.50;;;1.60;;
12222;SDS011;6174;49.058;8.524;2023-12-20T21:00:08;2.37;;;1.37;;
12222;SDS011;6174;49.058;8.524;2023-12-20T21:02:37;2.33;;;1.80;;
12222;SDS011;6174;49.058;8.524;2023-12-20T21:05:04;2.80;;;1.60;;
12222;SDS011;6174;49.058;8.524;2023-12-20T21:07:31;3.10;;;1.70;;
12222;SDS011;6174;49.058;8.524;2023-12-20T21:09:59;3.17;;;1.83;;
12222;SDS011;6174;49.058;8.524;2023-12-20T21:12:30;2.83;;;1.73;;
12222;SDS011;6174;49.058;8.524;2023-12-20T21:14:57;2.70;;;1.60;;
12222;SDS011;6174;49.058;8.524;2023-12-20T21:17:26;2.63;;;1.70;;
12222;SDS011;6174;49.058;8.524;2023-12-20T21:19:57;2.17;;;1.37;;
12222;SDS011;6174;49.058;8.524;2023-12-20T21:22:24;2.37;;;1.60;;
12222;SDS011;6174;49.058;8.524;2023-12-20T21:24:51;3.83;;;1.77;;
12222;SDS011;6174;49.058;8.524;2023-12-20T21:27:24;2.10;;;1.50;;
12222;SDS011;6174;49.058;8.524;2023-12-20T21:29:51;3.10;;;1.50;;
12222;SDS011;6174;49.058;8.524;2023-12-20T21:32:21;1.70;;;1.53;;
12222;SDS011;6174;49.058;8.524;2023-12-20T21:34:48;2.17;;;1.43;;
12222;SDS011;6174;49.058;8.524;2023-12-20T21:37:19;2.13;;;1.00;;
12222;SDS011;6174;49.058;8.524;2023-12-20T21:39:54;2.97;;;1.37;;
12222;SDS011;6174;49.058;8.524;2023-12-20T21:50:10;3.10;;;1.43;;
